Time;durP1;ratioP1;P1;durP2;ratioP2;P2;SDS_P1;SDS_P2;PMS_P1;PMS_P2;Temp;Humidity;BMP_temperature;BMP_pressure;BME280_temperature;BME280_humidity;BME280_pressure;Samples;Min_cycle;Max_cycle;Signal;HPM_P1;HPM_P2
2022/04/06 00:06:52;;;;;;;11.55;7.07;;;;;;;;;;20919346;28;20045;-66
2022/04/06 00:16:54;;;;;;;13.63;7.85;;;;;;;;;;20918496;28;20052;-62
2022/04/06 00:26:57;;;;;;;14.27;9.15;;;;;;;;;;20919297;28;20052;-64
2022/04/06 00:36:59;;;;;;;12.63;7.35;;;;;;;;;;20917142;28;20056;-63
2022/04/06 00:47:05;;;;;;;11.68;8.15;;;;;;;;;;20898778;28;20465;-63
2022/04/06 00:57:07;;;;;;;;;;;;;;;;;;20915901;28;20087;-68
2022/04/06 01:07:09;;;;;;;7.60;5.70;;;;;;;;;;20916856;28;20446;-63
2022/04/06 01:17:11;;;;;;;6.93;5.43;;;;;;;;;;20919736;28;20135;-67
2022/04/06 01:27:13;;;;;;;7.20;3.92;;;;;;;;;;20917569;28;20087;-66
2022/04/06 01:37:18;;;;;;;11.60;6.37;;;;;;;;;;20913030;28;20056;-65
2022/04/06 01:47:24;;;;;;;7.65;3.88;;;;;;;;;;20913093;28;20060;-75
2022/04/06 01:57:35;;;;;;;7.55;3.88;;;;;;;;;;20917951;28;20052;-69
2022/04/06 02:07:39;;;;;;;5.87;3.83;;;;;;;;;;20913684;28;20457;-75
2022/04/06 02:17:44;;;;;;;7.82;3.67;;;;;;;;;;20897232;28;20048;-68
2022/04/06 02:27:47;;;;;;;3.83;3.30;;;;;;;;;;20913562;28;20101;-76
2022/04/06 02:37:50;;;;;;;5.82;3.15;;;;;;;;;;20917428;28;20495;-77
2022/04/06 02:47:54;;;;;;;4.50;3.22;;;;;;;;;;20915016;28;20088;-74
2022/04/06 02:57:56;;;;;;;6.82;4.20;;;;;;;;;;20931239;28;20088;-75
2022/04/06 03:07:59;;;;;;;4.10;3.40;;;;;;;;;;20932090;28;20049;-73
2022/04/06 03:18:03;;;;;;;4.25;3.17;;;;;;;;;;20927904;28;20136;-70
2022/04/06 03:28:07;;;;;;;4.40;3.50;;;;;;;;;;20933242;28;20056;-75
2022/04/06 03:38:10;;;;;;;6.35;3.47;;;;;;;;;;20914568;28;20053;-73
2022/04/06 03:48:13;;;;;;;5.57;3.53;;;;;;;;;;20936021;28;20056;-72
2022/04/06 03:58:14;;;;;;;5.30;3.90;;;;;;;;;;20934748;28;20053;-76
2022/04/06 04:08:18;;;;;;;5.97;3.53;;;;;;;;;;20924775;28;20053;-74
2022/04/06 04:18:21;;;;;;;6.55;3.90;;;;;;;;;;20924395;28;20516;-74
2022/04/06 04:28:24;;;;;;;4.97;3.78;;;;;;;;;;20924643;28;20048;-75
2022/04/06 04:38:26;;;;;;;7.20;5.15;;;;;;;;;;20931860;28;20057;-73
2022/04/06 04:48:34;;;;;;;7.93;5.55;;;;;;;;;;20928176;28;20087;-68
2022/04/06 04:58:36;;;;;;;7.80;5.38;;;;;;;;;;20937928;28;20051;-72
2022/04/06 05:08:39;;;;;;;6.70;5.53;;;;;;;;;;20920089;28;20056;-71
2022/04/06 05:18:41;;;;;;;7.38;5.40;;;;;;;;;;20925704;28;20045;-75
2022/04/06 05:28:45;;;;;;;7.47;5.68;;;;;;;;;;20926671;28;20054;-67
2022/04/06 05:38:47;;;;;;;6.85;5.35;;;;;;;;;;20934639;28;20058;-75
2022/04/06 05:48:49;;;;;;;10.82;6.35;;;;;;;;;;20927730;28;20049;-70
2022/04/06 05:58:51;;;;;;;13.60;8.50;;;;;;;;;;20925242;28;20045;-74
2022/04/06 06:08:53;;;;;;;8.98;7.50;;;;;;;;;;20904022;28;20053;-63
2022/04/06 06:18:56;;;;;;;12.00;8.32;;;;;;;;;;20927060;28;20084;-71
2022/04/06 06:28:59;;;;;;;15.77;12.80;;;;;;;;;;20938123;28;20498;-71
2022/04/06 06:39:04;;;;;;;14.10;9.02;;;;;;;;;;20941693;28;20116;-66
2022/04/06 06:49:05;;;;;;;10.52;8.82;;;;;;;;;;20939119;28;20493;-66
2022/04/06 06:59:07;;;;;;;11.68;8.77;;;;;;;;;;20949178;28;20056;-64
2022/04/06 07:09:09;;;;;;;13.38;9.20;;;;;;;;;;21016295;28;20144;-63
2022/04/06 07:19:10;;;;;;;15.55;9.77;;;;;;;;;;21015701;28;20056;-63
2022/04/06 07:29:15;;;;;;;16.95;10.85;;;;;;;;;;21008370;28;20052;-70
2022/04/06 07:39:17;;;;;;;16.30;10.70;;;;;;;;;;21015154;28;20143;-63
2022/04/06 07:49:18;;;;;;;14.05;10.20;;;;;;;;;;21006413;28;20055;-63
2022/04/06 07:59:20;;;;;;;13.77;9.13;;;;;;;;;;21003539;28;20539;-64
2022/04/06 08:09:23;;;;;;;9.85;8.00;;;;;;;;;;21001568;28;20414;-65
2022/04/06 08:19:25;;;;;;;13.38;8.48;;;;;;;;;;20999948;28;20102;-64
2022/04/06 08:29:27;;;;;;;10.68;7.43;;;;;;;;;;20998911;28;20049;-67
2022/04/06 08:39:29;;;;;;;10.65;7.30;;;;;;;;;;20998978;28;20044;-66
2022/04/06 08:49:32;;;;;;;9.60;6.80;;;;;;;;;;20997364;28;20053;-65
2022/04/06 08:59:34;;;;;;;8.43;6.03;;;;;;;;;;20996823;28;20087;-60
2022/04/06 09:09:36;;;;;;;10.75;7.05;;;;;;;;;;20996339;28;20482;-61
2022/04/06 09:19:39;;;;;;;10.77;7.03;;;;;;;;;;20995592;28;20044;-68
2022/04/06 09:29:41;;;;;;;11.38;7.53;;;;;;;;;;20995365;28;20057;-61
2022/04/06 09:39:44;;;;;;;10.57;6.63;;;;;;;;;;20994585;28;20418;-61
2022/04/06 09:49:46;;;;;;;12.30;7.63;;;;;;;;;;20976576;28;20149;-60
2022/04/06 09:59:48;;;;;;;11.30;8.50;;;;;;;;;;20996576;28;20501;-62
2022/04/06 10:09:51;;;;;;;9.15;6.95;;;;;;;;;;21008950;28;20063;-65
2022/04/06 10:19:58;;;;;;;8.45;6.78;;;;;;;;;;21009642;28;20083;-69
2022/04/06 10:30:07;;;;;;;9.98;7.45;;;;;;;;;;20973279;28;20556;-64
2022/04/06 10:40:09;;;;;;;9.38;7.03;;;;;;;;;;20971885;28;20060;-68
2022/04/06 10:50:11;;;;;;;8.20;6.57;;;;;;;;;;20977108;28;20045;-66
2022/04/06 11:00:14;;;;;;;8.02;5.90;;;;;;;;;;20968659;28;20128;-57
2022/04/06 11:10:16;;;;;;;13.50;7.07;;;;;;;;;;20985072;28;20118;-58
2022/04/06 11:20:19;;;;;;;9.98;5.45;;;;;;;;;;20937611;28;20047;-59
2022/04/06 11:30:23;;;;;;;7.80;5.32;;;;;;;;;;20936126;28;20103;-63
2022/04/06 11:40:26;;;;;;;8.70;4.60;;;;;;;;;;20920325;28;20618;-63
2022/04/06 11:50:29;;;;;;;6.18;4.65;;;;;;;;;;20919334;28;20140;-61
2022/04/06 12:00:34;;;;;;;9.90;5.75;;;;;;;;;;20919345;28;20056;-75
2022/04/06 12:10:46;;;;;;;7.47;4.70;;;;;;;;;;20917095;28;20060;-76
2022/04/06 12:20:49;;;;;;;6.53;4.80;;;;;;;;;;20917618;28;20041;-75
2022/04/06 12:30:55;;;;;;;7.88;4.45;;;;;;;;;;20916135;28;20132;-75
2022/04/06 12:41:08;;;;;;;8.02;4.68;;;;;;;;;;20916409;28;20494;-75
2022/04/06 12:51:21;;;;;;;7.80;4.75;;;;;;;;;;20899910;28;20059;-75
2022/04/06 13:01:23;;;;;;;4.82;4.10;;;;;;;;;;20920148;28;20479;-76
2022/04/06 13:11:25;;;;;;;7.47;4.35;;;;;;;;;;20897823;28;20085;-76
2022/04/06 13:21:33;;;;;;;7.13;4.18;;;;;;;;;;20914355;28;20080;-77
2022/04/06 13:31:39;;;;;;;5.47;3.20;;;;;;;;;;20913001;28;20056;-77
2022/04/06 13:41:43;;;;;;;4.78;3.63;;;;;;;;;;20911950;28;20132;-76
2022/04/06 13:51:46;;;;;;;5.47;3.35;;;;;;;;;;20911898;28;20079;-75
2022/04/06 14:01:48;;;;;;;5.75;3.15;;;;;;;;;;20912406;28;20133;-76
2022/04/06 14:11:51;;;;;;;3.63;2.80;;;;;;;;;;20912322;28;20044;-77
2022/04/06 14:21:55;;;;;;;4.60;2.70;;;;;;;;;;20912611;28;20064;-77
2022/04/06 14:31:56;;;;;;;4.55;3.00;;;;;;;;;;20911752;28;20084;-77
2022/04/06 14:42:01;;;;;;;2.83;1.67;;;;;;;;;;20910357;28;20099;-75
2022/04/06 14:52:04;;;;;;;4.57;1.97;;;;;;;;;;20922030;28;20557;-76
2022/04/06 15:02:06;;;;;;;2.38;1.70;;;;;;;;;;20925352;28;20049;-75
2022/04/06 15:12:07;;;;;;;1.73;1.40;;;;;;;;;;20924005;28;20135;-75
2022/04/06 15:22:09;;;;;;;2.83;1.60;;;;;;;;;;20932665;28;20048;-73
2022/04/06 15:32:11;;;;;;;2.63;1.38;;;;;;;;;;20936821;28;20049;-75
2022/04/06 15:42:17;;;;;;;3.10;1.95;;;;;;;;;;20920430;28;20080;-75
2022/04/06 15:52:20;;;;;;;4.45;1.58;;;;;;;;;;20900514;28;20048;-64
2022/04/06 16:02:22;;;;;;;4.80;2.13;;;;;;;;;;20917940;28;20045;-58
2022/04/06 16:12:24;;;;;;;2.40;1.35;;;;;;;;;;20999757;28;20056;-59
2022/04/06 16:22:26;;;;;;;4.95;2.42;;;;;;;;;;21001274;28;20498;-59
2022/04/06 16:32:27;;;;;;;2.72;1.35;;;;;;;;;;20998426;28;20083;-64
2022/04/06 16:42:29;;;;;;;3.03;1.42;;;;;;;;;;20980546;28;20079;-57
2022/04/06 16:52:40;;;;;;;4.50;1.90;;;;;;;;;;20979580;28;20139;-62
2022/04/06 17:02:43;;;;;;;2.60;1.65;;;;;;;;;;20938366;28;20499;-66
2022/04/06 17:12:45;;;;;;;6.80;1.77;;;;;;;;;;20916272;28;20057;-61
2022/04/06 17:22:47;;;;;;;4.60;2.08;;;;;;;;;;20912703;28;20048;-61
2022/04/06 17:32:49;;;;;;;4.78;1.83;;;;;;;;;;20912433;28;20053;-58
2022/04/06 17:42:52;;;;;;;3.53;1.23;;;;;;;;;;20949578;28;20483;-59
2022/04/06 17:52:54;;;;;;;3.38;1.95;;;;;;;;;;20951279;28;20045;-58
2022/04/06 18:02:58;;;;;;;5.70;2.27;;;;;;;;;;20950572;28;20110;-59
2022/04/06 18:23:21;;;;;;;5.80;2.03;;;;;;;;;;20957593;28;20044;-61
2022/04/06 18:33:26;;;;;;;2.67;1.67;;;;;;;;;;20964859;28;20045;-62
2022/04/06 18:43:30;;;;;;;3.15;1.80;;;;;;;;;;20966487;28;20049;-61
2022/04/06 18:53:31;;;;;;;5.70;2.97;;;;;;;;;;20965723;28;20105;-59
2022/04/06 19:03:35;;;;;;;6.07;2.60;;;;;;;;;;20962686;28;20045;-63
2022/04/06 19:13:37;;;;;;;22.20;12.37;;;;;;;;;;20962608;28;20536;-62
2022/04/06 19:23:38;;;;;;;4.60;2.58;;;;;;;;;;20959333;28;20045;-62
2022/04/06 19:33:40;;;;;;;5.07;2.60;;;;;;;;;;20959252;28;20044;-59
2022/04/06 19:43:42;;;;;;;7.05;3.10;;;;;;;;;;20960199;28;20384;-65
2022/04/06 19:53:43;;;;;;;3.83;2.38;;;;;;;;;;20919496;28;20414;-66
2022/04/06 20:03:45;;;;;;;7.93;2.70;;;;;;;;;;20919414;28;20469;-66
2022/04/06 20:13:47;;;;;;;4.97;2.97;;;;;;;;;;20918753;28;20506;-71
2022/04/06 20:23:49;;;;;;;5.40;3.10;;;;;;;;;;20917916;28;20045;-66
2022/04/06 20:33:50;;;;;;;5.97;3.22;;;;;;;;;;20917153;28;20410;-65
2022/04/06 20:43:52;;;;;;;4.60;3.15;;;;;;;;;;20914630;28;20068;-66
2022/04/06 20:53:54;;;;;;;6.78;2.92;;;;;;;;;;20914463;28;20045;-65
2022/04/06 21:03:56;;;;;;;5.40;3.58;;;;;;;;;;20914739;28;20454;-65
2022/04/06 21:13:58;;;;;;;4.53;2.80;;;;;;;;;;20914365;28;20053;-68
2022/04/06 21:23:59;;;;;;;5.30;3.03;;;;;;;;;;20896010;28;20056;-66
2022/04/06 21:34:04;;;;;;;6.13;3.15;;;;;;;;;;20912678;28;20071;-67
2022/04/06 21:44:06;;;;;;;4.57;3.00;;;;;;;;;;20912732;28;20052;-66
2022/04/06 21:54:13;;;;;;;5.40;2.65;;;;;;;;;;20913536;28;20095;-66
2022/04/06 22:04:14;;;;;;;4.75;2.40;;;;;;;;;;20928819;28;20045;-65
2022/04/06 22:14:16;;;;;;;4.72;2.70;;;;;;;;;;20928280;28;20045;-65
2022/04/06 22:24:18;;;;;;;7.35;3.20;;;;;;;;;;20926840;28;20053;-67
2022/04/06 22:34:20;;;;;;;3.60;2.70;;;;;;;;;;20927233;28;20388;-66
2022/04/06 22:44:22;;;;;;;4.88;2.72;;;;;;;;;;20925347;28;20453;-65
2022/04/06 22:54:24;;;;;;;5.03;2.80;;;;;;;;;;20925725;28;20074;-65
2022/04/06 23:04:25;;;;;;;4.15;2.80;;;;;;;;;;20925676;28;20407;-68
2022/04/06 23:14:29;;;;;;;133.93;86.70;;;;;;;;;;20923403;28;20052;-72
2022/04/06 23:24:32;;;;;;;3.75;2.35;;;;;;;;;;20923744;28;20414;-65
2022/04/06 23:34:33;;;;;;;7.30;2.97;;;;;;;;;;20922320;28;20049;-66
2022/04/06 23:44:35;;;;;;;4.70;2.30;;;;;;;;;;20921252;28;20049;-65
2022/04/06 23:54:37;;;;;;;4.97;2.40;;;;;;;;;;20921618;28;20107;-68
